Time;durP1;ratioP1;P1;durP2;ratioP2;P2;SDS_P1;SDS_P2;PMS_P1;PMS_P2;Temp;Humidity;BMP_temperature;BMP_pressure;BME280_temperature;BME280_humidity;BME280_pressure;Samples;Min_cycle;Max_cycle;Signal;HPM_P1;HPM_P2
2021/12/03 00:00:55;;;;;;;0.00;0.00;;;;;;;9.58;71.26;98239.28;5073032;28;20126;-73
2021/12/03 00:03:21;;;;;;;0.00;0.00;;;;;;;9.53;70.86;98227.88;5086316;28;20085;-73
2021/12/03 00:05:48;;;;;;;0.00;0.00;;;;;;;9.57;71.17;98245.69;5093471;28;20035;-72
2021/12/03 00:08:13;;;;;;;0.00;0.00;;;;;;;9.45;71.06;98229.31;5078684;28;20116;-69
2021/12/03 00:10:39;;;;;;;0.00;0.00;;;;;;;9.54;71.28;98245.47;5074101;28;20454;-70
2021/12/03 00:13:07;;;;;;;0.00;0.00;;;;;;;9.58;71.39;98254.47;5073044;28;20036;-72
2021/12/03 00:15:34;;;;;;;0.25;0.25;;;;;;;9.58;71.18;98255.28;5072915;28;20032;-71
2021/12/03 00:18:00;;;;;;;0.05;0.05;;;;;;;9.49;71.14;98237.56;5082079;28;20046;-72
2021/12/03 00:20:26;;;;;;;0.08;0.08;;;;;;;9.61;71.47;98265.38;5056438;28;20071;-73
2021/12/03 00:22:56;;;;;;;0.28;0.28;;;;;;;9.63;71.49;98256.28;5091478;28;20059;-71
2021/12/03 00:25:21;;;;;;;0.00;0.00;;;;;;;9.66;71.02;98256.50;5080535;28;20494;-72
2021/12/03 00:27:47;;;;;;;0.00;0.00;;;;;;;9.67;71.05;98258.09;5093133;28;20024;-71
2021/12/03 00:30:14;;;;;;;0.45;0.45;;;;;;;9.67;71.07;98260.78;5086426;28;20372;-72
2021/12/03 00:32:40;;;;;;;0.22;0.22;;;;;;;9.64;70.99;98248.00;5072636;28;20476;-70
2021/12/03 00:35:09;;;;;;;0.05;0.05;;;;;;;9.68;70.92;98242.88;5072636;28;20021;-73
2021/12/03 00:37:35;;;;;;;0.00;0.00;;;;;;;9.66;71.30;98242.38;5072790;28;20032;-73
2021/12/03 00:40:00;;;;;;;0.00;0.00;;;;;;;9.67;71.00;98241.31;5077759;28;20032;-73
2021/12/03 00:42:28;;;;;;;0.32;0.30;;;;;;;9.60;71.08;98238.97;5092085;28;20459;-72
2021/12/03 00:44:55;;;;;;;0.47;0.47;;;;;;;9.68;70.74;98235.66;5072584;28;20024;-72
2021/12/03 00:47:21;;;;;;;0.15;0.15;;;;;;;9.60;70.96;98238.97;5054389;28;20350;-72
2021/12/03 00:49:47;;;;;;;0.00;0.00;;;;;;;9.70;70.73;98251.38;5074302;28;20124;-72
2021/12/03 00:52:12;;;;;;;0.00;0.00;;;;;;;9.66;70.43;98232.47;5086557;28;20032;-72
2021/12/03 00:54:38;;;;;;;0.00;0.00;;;;;;;9.63;70.62;98227.75;5087752;28;20040;-72
2021/12/03 00:57:04;;;;;;;0.00;0.00;;;;;;;9.66;70.60;98234.38;5073554;28;20024;-71
2021/12/03 00:59:29;;;;;;;0.00;0.00;;;;;;;9.72;70.61;98241.22;5073396;28;20407;-72
2021/12/03 01:01:55;;;;;;;0.00;0.00;;;;;;;9.72;70.61;98241.22;5092119;28;20024;-73
2021/12/03 01:04:21;;;;;;;0.47;0.47;;;;;;;9.77;70.47;98244.59;5092049;28;20032;-73
2021/12/03 01:06:47;;;;;;;0.00;0.00;;;;;;;9.72;70.49;98225.97;5092394;28;20034;-71
2021/12/03 01:09:13;;;;;;;0.00;0.00;;;;;;;9.75;70.51;98227.28;5080401;28;20440;-71
2021/12/03 01:11:38;;;;;;;0.20;0.20;;;;;;;9.83;70.13;98233.84;5072615;28;20033;-72
2021/12/03 01:14:04;;;;;;;0.00;0.00;;;;;;;9.83;70.01;98228.50;5071905;28;20036;-73
2021/12/03 01:16:30;;;;;;;0.00;0.00;;;;;;;9.89;69.79;98227.34;5071378;28;20020;-73
2021/12/03 01:18:57;;;;;;;0.00;0.00;;;;;;;9.86;69.87;98223.38;5087870;28;20457;-71
2021/12/03 01:21:23;;;;;;;0.20;0.20;;;;;;;9.90;69.69;98232.41;5072002;28;20032;-71
2021/12/03 01:23:49;;;;;;;0.00;0.00;;;;;;;9.93;69.65;98234.47;5071859;28;20032;-75
2021/12/03 01:26:17;;;;;;;0.00;0.00;;;;;;;9.98;69.24;98236.25;5076736;28;20028;-74
2021/12/03 01:28:43;;;;;;;0.00;0.00;;;;;;;10.01;69.33;98240.22;5072071;28;20086;-74
2021/12/03 01:31:09;;;;;;;0.00;0.00;;;;;;;10.00;69.45;98227.97;5083698;28;20028;-74
2021/12/03 01:33:35;;;;;;;0.00;0.00;;;;;;;10.06;69.22;98245.50;5079081;28;20488;-74
2021/12/03 01:36:01;;;;;;;0.08;0.08;;;;;;;10.03;68.99;98230.06;5061242;28;20051;-73
2021/12/03 01:38:26;;;;;;;0.00;0.00;;;;;;;10.03;68.64;98224.72;5091673;28;20089;-72
2021/12/03 01:40:52;;;;;;;0.00;0.00;;;;;;;10.07;68.80;98220.34;5078916;28;20024;-73
2021/12/03 01:43:27;;;;;;;0.00;0.00;;;;;;;10.14;68.17;98222.66;5053443;28;20463;-74
2021/12/03 01:46:03;;;;;;;0.13;0.13;;;;;;;10.18;68.36;98218.31;5071152;28;20483;-75
2021/12/03 01:48:30;;;;;;;0.00;0.00;;;;;;;10.18;67.92;98207.63;5053115;28;20424;-74
2021/12/03 01:50:56;;;;;;;0.00;0.00;;;;;;;10.19;68.44;98194.00;5070989;28;20119;-74
2021/12/03 01:53:26;;;;;;;0.70;0.70;;;;;;;10.26;67.73;98193.59;5067600;28;20028;-74
2021/12/03 01:55:55;;;;;;;0.00;0.00;;;;;;;10.33;67.50;98199.34;5061624;28;20020;-74
2021/12/03 01:58:21;;;;;;;0.00;0.00;;;;;;;10.32;67.57;98192.41;5070746;28;20024;-73
2021/12/03 02:00:51;;;;;;;0.00;0.00;;;;;;;10.34;67.77;98178.75;5071133;28;20511;-72
2021/12/03 02:03:20;;;;;;;0.20;0.20;;;;;;;10.42;67.60;98183.44;5071158;28;20438;-75
2021/12/03 02:05:46;;;;;;;0.00;0.00;;;;;;;10.33;67.89;98161.16;5070651;28;20411;-73
2021/12/03 02:08:11;;;;;;;0.00;0.00;;;;;;;10.40;67.04;98173.06;5070847;28;20020;-74
2021/12/03 02:10:38;;;;;;;0.08;0.08;;;;;;;10.42;67.26;98162.06;5074319;28;20051;-74
2021/12/03 02:13:05;;;;;;;0.00;0.00;;;;;;;10.51;67.18;98170.19;5070686;28;20040;-75
2021/12/03 02:15:30;;;;;;;0.00;0.00;;;;;;;10.49;66.63;98154.44;5070748;28;20027;-74
2021/12/03 02:17:56;;;;;;;0.00;0.00;;;;;;;10.55;66.67;98168.50;5072942;28;20103;-76
2021/12/03 02:20:21;;;;;;;0.55;0.43;;;;;;;10.50;66.91;98153.38;5070645;28;20020;-72
2021/12/03 02:22:48;;;;;;;0.22;0.22;;;;;;;10.53;66.60;98160.00;5090418;28;20032;-72
2021/12/03 02:25:20;;;;;;;0.00;0.00;;;;;;;10.58;66.81;98159.88;5090934;28;20077;-72
2021/12/03 02:27:50;;;;;;;0.00;0.00;;;;;;;10.63;66.69;98162.47;5075360;28;20041;-72
2021/12/03 02:30:17;;;;;;;0.22;0.22;;;;;;;10.65;66.81;98165.63;5070906;28;20032;-72
2021/12/03 02:32:42;;;;;;;0.20;0.20;;;;;;;10.68;66.73;98173.06;5052457;28;20884;-71
2021/12/03 02:35:08;;;;;;;0.00;0.00;;;;;;;10.69;66.75;98174.66;5070749;28;20028;-74
2021/12/03 02:37:34;;;;;;;0.00;0.00;;;;;;;10.66;66.69;98166.44;5075651;28;20032;-73
2021/12/03 02:40:00;;;;;;;0.10;0.10;;;;;;;10.76;66.68;98168.13;5067537;28;20021;-73
2021/12/03 02:42:25;;;;;;;0.00;0.00;;;;;;;10.76;66.73;98171.56;5070308;28;20150;-76
2021/12/03 02:44:51;;;;;;;0.10;0.10;;;;;;;10.78;66.91;98166.72;5052730;28;20027;-74
2021/12/03 02:47:17;;;;;;;0.00;0.00;;;;;;;10.83;66.19;98165.84;5070771;28;20029;-76
2021/12/03 02:49:43;;;;;;;0.00;0.00;;;;;;;10.81;66.22;98165.34;5070118;28;20703;-72
2021/12/03 02:52:10;;;;;;;0.00;0.00;;;;;;;10.91;65.66;98185.72;5070180;28;20024;-71
2021/12/03 02:54:37;;;;;;;0.00;0.00;;;;;;;10.97;65.64;98190.66;5070504;28;20077;-73
2021/12/03 02:57:03;;;;;;;0.00;0.00;;;;;;;11.00;65.33;98184.72;5070412;28;20039;-71
2021/12/03 02:59:32;;;;;;;0.00;0.00;;;;;;;11.01;65.71;98194.34;5070455;28;20020;-71
2021/12/03 03:01:58;;;;;;;0.00;0.00;;;;;;;10.84;65.59;98165.53;5076704;28;20118;-74
2021/12/03 03:04:23;;;;;;;0.00;0.00;;;;;;;11.07;65.21;98194.22;5090634;28;20040;-73
2021/12/03 03:06:49;;;;;;;0.00;0.00;;;;;;;11.04;65.31;98185.69;5076260;28;20045;-73
2021/12/03 03:09:16;;;;;;;0.00;0.00;;;;;;;11.09;65.77;98179.44;5082516;28;20044;-74
2021/12/03 03:11:41;;;;;;;0.30;0.30;;;;;;;11.03;65.79;98169.94;5075156;28;20082;-73
2021/12/03 03:14:07;;;;;;;0.00;0.00;;;;;;;11.11;65.50;98176.47;5052397;28;20024;-74
2021/12/03 03:16:33;;;;;;;0.00;0.00;;;;;;;11.12;65.18;98178.88;5070307;28;20040;-75
2021/12/03 03:18:59;;;;;;;0.00;0.00;;;;;;;11.13;65.77;98174.28;5070663;28;20020;-74
2021/12/03 03:21:25;;;;;;;0.40;0.40;;;;;;;11.17;65.27;98176.06;5070265;28;20029;-73
2021/12/03 03:23:51;;;;;;;0.00;0.00;;;;;;;11.17;65.58;98178.75;5078885;28;20024;-74
2021/12/03 03:26:17;;;;;;;0.30;0.30;;;;;;;11.18;65.32;98185.69;5094235;28;20032;-76
2021/12/03 03:28:44;;;;;;;0.00;0.00;;;;;;;11.14;65.27;98173.97;5084915;28;20028;-73
2021/12/03 03:31:09;;;;;;;0.00;0.00;;;;;;;11.23;64.89;98187.47;5056352;28;20033;-72
2021/12/03 03:33:36;;;;;;;0.00;0.00;;;;;;;11.21;65.18;98184.28;5073906;28;20087;-74
2021/12/03 03:36:01;;;;;;;0.00;0.00;;;;;;;11.26;64.80;98196.78;5073907;28;20107;-75
2021/12/03 03:38:28;;;;;;;0.00;0.00;;;;;;;11.27;65.15;98203.72;5087603;28;20072;-75
2021/12/03 03:40:54;;;;;;;0.00;0.00;;;;;;;11.29;65.09;98199.66;5074767;28;20032;-73
2021/12/03 03:43:20;;;;;;;0.00;0.00;;;;;;;11.30;64.83;98203.91;5055803;28;20025;-74
2021/12/03 03:45:47;;;;;;;0.00;0.00;;;;;;;11.24;65.09;98198.94;5073814;28;20029;-74
2021/12/03 03:48:13;;;;;;;0.00;0.00;;;;;;;11.25;64.58;98190.63;5073674;28;20028;-74
2021/12/03 03:50:39;;;;;;;0.00;0.00;;;;;;;11.33;63.90;98197.16;5065958;28;20029;-73
2021/12/03 03:53:04;;;;;;;0.00;0.00;;;;;;;11.29;64.61;98194.28;5073717;28;20086;-74
2021/12/03 03:55:30;;;;;;;0.00;0.00;;;;;;;11.35;64.58;98209.16;5085353;28;20035;-73
2021/12/03 03:57:57;;;;;;;0.10;0.10;;;;;;;11.36;64.92;98212.59;5073516;28;20032;-71
2021/12/03 04:00:31;;;;;;;0.00;0.00;;;;;;;11.43;64.01;98212.19;5073409;28;20039;-72
2021/12/03 04:02:57;;;;;;;0.00;0.00;;;;;;;11.37;64.72;98201.59;5073246;28;20029;-73
2021/12/03 04:05:22;;;;;;;0.00;0.00;;;;;;;11.46;64.54;98212.38;5073235;28;20506;-71
2021/12/03 04:07:48;;;;;;;0.00;0.00;;;;;;;11.48;64.37;98222.78;5073011;28;20032;-70
2021/12/03 04:10:14;;;;;;;0.00;0.00;;;;;;;11.48;64.23;98233.50;5073662;28;20051;-74
2021/12/03 04:12:40;;;;;;;0.00;0.00;;;;;;;11.51;64.51;98214.94;5072606;28;20055;-74
2021/12/03 04:15:08;;;;;;;6.63;1.20;;;;;;;11.58;64.13;98235.94;5055290;28;20384;-74
2021/12/03 04:17:34;;;;;;;0.00;0.00;;;;;;;11.59;64.65;98234.84;5054598;28;20032;-74
2021/12/03 04:20:00;;;;;;;0.00;0.00;;;;;;;11.61;64.93;98223.81;5077442;28;20517;-74
2021/12/03 04:22:25;;;;;;;0.40;0.40;;;;;;;11.61;65.01;98234.53;5073096;28;20029;-74
2021/12/03 04:24:54;;;;;;;0.00;0.00;;;;;;;11.62;64.45;98236.13;5076227;28;20020;-73
2021/12/03 04:27:19;;;;;;;0.00;0.00;;;;;;;11.65;65.30;98238.22;5081570;28;20063;-73
2021/12/03 04:29:45;;;;;;;0.00;0.00;;;;;;;11.68;64.73;98238.41;5072970;28;20127;-74
2021/12/03 04:32:12;;;;;;;0.10;0.10;;;;;;;11.64;65.23;98224.00;5059760;28;20035;-75
2021/12/03 04:34:38;;;;;;;0.00;0.00;;;;;;;11.62;65.12;98223.53;5071792;28;20035;-76
2021/12/03 04:37:04;;;;;;;0.30;0.30;;;;;;;11.68;65.84;98229.56;5054655;28;20032;-77
2021/12/03 04:39:29;;;;;;;0.00;0.00;;;;;;;11.71;66.01;98233.53;5054440;28;20029;-82
2021/12/03 04:41:55;;;;;;;0.00;0.00;;;;;;;11.69;66.06;98234.63;5054804;28;20483;-73
2021/12/03 04:44:20;;;;;;;0.00;0.00;;;;;;;11.69;66.37;98229.28;5054671;28;20645;-73
2021/12/03 04:46:45;;;;;;;0.80;0.80;;;;;;;11.67;66.24;98218.06;5068427;28;20148;-73
2021/12/03 04:49:11;;;;;;;0.20;0.20;;;;;;;11.69;66.35;98237.31;5079501;28;20568;-73
2021/12/03 04:51:36;;;;;;;0.10;0.10;;;;;;;11.62;66.42;98218.19;5093742;28;20031;-73
2021/12/03 04:54:02;;;;;;;0.20;0.20;;;;;;;11.74;66.88;98228.34;5112761;28;20020;-74
2021/12/03 04:56:28;;;;;;;0.00;0.00;;;;;;;11.65;67.02;98220.25;5063245;28;20030;-73
2021/12/03 04:58:53;;;;;;;0.00;0.00;;;;;;;11.66;66.91;98221.84;5072166;28;20055;-72
2021/12/03 05:01:18;;;;;;;0.00;0.00;;;;;;;11.68;66.72;98197.41;5072252;28;20035;-75
2021/12/03 05:03:44;;;;;;;0.17;0.17;;;;;;;11.66;66.91;98188.91;5072299;28;20679;-71
2021/12/03 05:06:14;;;;;;;0.00;0.00;;;;;;;11.76;66.90;98206.63;5050799;28;20106;-71
2021/12/03 05:08:40;;;;;;;0.15;0.15;;;;;;;11.78;66.80;98207.09;5051940;28;20025;-72
2021/12/03 05:11:05;;;;;;;0.00;0.00;;;;;;;11.80;66.70;98204.91;5050967;28;20040;-72
2021/12/03 05:13:34;;;;;;;0.00;0.00;;;;;;;11.63;67.07;98189.50;5050566;28;20111;-72
2021/12/03 05:16:01;;;;;;;0.10;0.10;;;;;;;11.84;67.32;98224.66;5063293;28;20059;-72
2021/12/03 05:18:28;;;;;;;0.00;0.00;;;;;;;11.80;66.99;98213.75;5056258;28;20024;-72
2021/12/03 05:20:56;;;;;;;0.00;0.00;;;;;;;11.89;68.55;98231.75;5059862;28;20341;-74
2021/12/03 05:23:23;;;;;;;0.00;0.00;;;;;;;11.84;67.54;98221.97;5055033;28;20032;-73
2021/12/03 05:25:49;;;;;;;0.80;0.80;;;;;;;11.86;67.60;98225.13;5051349;28;20036;-74
2021/12/03 05:28:16;;;;;;;0.05;0.05;;;;;;;11.90;67.44;98231.47;5054918;28;20082;-74
2021/12/03 05:30:42;;;;;;;0.00;0.00;;;;;;;11.90;67.39;98228.81;5065092;28;20056;-73
2021/12/03 05:33:08;;;;;;;0.10;0.10;;;;;;;11.91;67.49;98225.00;5052288;28;20072;-74
2021/12/03 05:35:34;;;;;;;0.10;0.10;;;;;;;11.92;67.63;98237.31;5069755;28;20043;-72
2021/12/03 05:38:00;;;;;;;0.00;0.00;;;;;;;11.87;68.04;98229.41;5071209;28;20077;-73
2021/12/03 05:40:25;;;;;;;0.63;0.63;;;;;;;11.94;67.43;98240.47;5071122;28;20021;-73
2021/12/03 05:42:51;;;;;;;0.00;0.00;;;;;;;11.89;68.19;98229.91;5069573;28;20051;-73
2021/12/03 05:45:26;;;;;;;0.00;0.00;;;;;;;11.97;68.28;98252.50;5070507;28;20025;-73
2021/12/03 05:47:53;;;;;;;0.00;0.00;;;;;;;11.79;67.99;98230.13;5070963;28;20613;-73
2021/12/03 05:50:19;;;;;;;0.00;0.00;;;;;;;12.04;68.29;98260.91;5071055;28;20059;-74
2021/12/03 05:52:48;;;;;;;0.00;0.00;;;;;;;12.02;67.97;98263.09;5070937;28;20516;-74
2021/12/03 05:55:15;;;;;;;0.75;0.63;;;;;;;12.04;68.05;98250.19;5071217;28;20040;-74
2021/12/03 05:57:42;;;;;;;0.10;0.10;;;;;;;12.03;68.94;98255.88;5069661;28;20550;-74
2021/12/03 06:00:13;;;;;;;0.00;0.00;;;;;;;11.95;68.83;98241.25;5071159;28;20082;-74
2021/12/03 06:02:38;;;;;;;0.00;0.00;;;;;;;12.00;69.26;98260.72;5069732;28;20033;-74
2021/12/03 06:05:05;;;;;;;0.13;0.13;;;;;;;12.07;69.65;98267.53;5069741;28;20063;-74
2021/12/03 06:07:30;;;;;;;0.08;0.08;;;;;;;12.06;69.36;98274.00;5069754;28;20036;-74
2021/12/03 06:09:55;;;;;;;0.63;0.63;;;;;;;12.05;69.51;98259.00;5071378;28;20480;-74
2021/12/03 06:12:21;;;;;;;0.00;0.00;;;;;;;12.18;69.68;98274.25;5071456;28;20517;-74
2021/12/03 06:14:46;;;;;;;0.00;0.00;;;;;;;12.23;69.39;98281.38;5070918;28;20476;-74
2021/12/03 06:17:13;;;;;;;0.00;0.00;;;;;;;12.33;69.33;98303.38;5070761;28;20436;-74
2021/12/03 06:19:44;;;;;;;0.00;0.00;;;;;;;12.41;69.25;98293.78;5071187;28;20036;-74
2021/12/03 06:22:11;;;;;;;0.00;0.00;;;;;;;12.50;69.06;98301.91;5071335;28;20032;-74
2021/12/03 06:24:38;;;;;;;0.00;0.00;;;;;;;12.58;68.31;98301.13;5070459;28;20028;-74
2021/12/03 06:27:04;;;;;;;0.03;0.03;;;;;;;12.64;68.17;98305.28;5070984;28;20415;-74
2021/12/03 06:29:29;;;;;;;0.10;0.10;;;;;;;12.68;68.15;98307.34;5071186;28;20028;-73
2021/12/03 06:31:55;;;;;;;0.22;0.22;;;;;;;12.70;68.45;98299.78;5070672;28;20032;-73
2021/12/03 06:34:21;;;;;;;0.00;0.00;;;;;;;12.78;67.69;98312.44;5070609;28;20020;-73
2021/12/03 06:36:46;;;;;;;0.00;0.00;;;;;;;12.80;67.87;98312.94;5070278;28;20115;-73
2021/12/03 06:39:12;;;;;;;0.00;0.00;;;;;;;12.79;67.33;98306.78;5070643;28;20028;-73
2021/12/03 06:41:37;;;;;;;0.00;0.00;;;;;;;12.86;67.27;98314.38;5069206;28;20396;-74
2021/12/03 06:44:04;;;;;;;0.00;0.00;;;;;;;12.81;67.03;98303.78;5070575;28;20033;-74
2021/12/03 06:46:30;;;;;;;0.08;0.08;;;;;;;12.89;67.36;98312.97;5070913;28;20029;-75
2021/12/03 06:48:56;;;;;;;0.00;0.00;;;;;;;12.92;67.47;98315.03;5071000;28;20380;-74
2021/12/03 06:51:22;;;;;;;0.00;0.00;;;;;;;13.00;67.19;98330.41;5069653;28;20024;-74
2021/12/03 06:53:57;;;;;;;0.10;0.10;;;;;;;13.01;66.99;98321.25;5070583;28;20451;-74
2021/12/03 06:56:23;;;;;;;0.00;0.00;;;;;;;13.06;67.13;98315.75;5070877;28;20028;-75
2021/12/03 06:58:49;;;;;;;0.10;0.10;;;;;;;13.13;66.91;98317.97;5073335;28;20029;-74
2021/12/03 07:01:15;;;;;;;0.00;0.00;;;;;;;13.15;67.07;98323.81;5073405;28;20100;-74
2021/12/03 07:03:41;;;;;;;0.00;0.00;;;;;;;13.15;67.07;98307.72;5074589;28;20119;-74
2021/12/03 07:06:07;;;;;;;0.00;0.00;;;;;;;13.25;66.81;98312.78;5093226;28;20078;-74
2021/12/03 07:08:32;;;;;;;0.00;0.00;;;;;;;13.25;66.75;98298.56;5094400;28;20039;-74
2021/12/03 07:10:57;;;;;;;0.00;0.00;;;;;;;13.29;66.65;98303.03;5076118;28;20394;-74
2021/12/03 07:13:25;;;;;;;0.05;0.05;;;;;;;13.44;66.93;98311.78;5094340;28;20024;-74
2021/12/03 07:15:51;;;;;;;0.00;0.00;;;;;;;13.53;67.01;98317.16;5094358;28;20024;-74
2021/12/03 07:18:17;;;;;;;0.00;0.00;;;;;;;13.53;66.77;98304.50;5094252;28;20020;-74
2021/12/03 07:20:42;;;;;;;0.10;0.10;;;;;;;13.63;66.55;98308.00;5093900;28;20028;-74
2021/12/03 07:23:07;;;;;;;0.75;0.43;;;;;;;13.79;66.49;98321.78;5094374;28;20024;-74
2021/12/03 07:25:33;;;;;;;0.00;0.00;;;;;;;13.87;66.20;98329.84;5076165;28;20491;-73
2021/12/03 07:27:58;;;;;;;0.10;0.10;;;;;;;13.93;65.47;98327.81;5075959;28;20028;-73
2021/12/03 07:30:30;;;;;;;0.00;0.00;;;;;;;14.04;65.73;98325.59;5094111;28;20027;-74
2021/12/03 07:32:55;;;;;;;0.10;0.10;;;;;;;14.07;65.19;98327.63;5075638;28;20370;-74
2021/12/03 07:35:21;;;;;;;0.00;0.00;;;;;;;14.15;65.47;98328.75;5094063;28;20024;-73
2021/12/03 07:37:46;;;;;;;0.10;0.10;;;;;;;14.23;65.03;98347.56;5093704;28;20107;-74
2021/12/03 07:40:13;;;;;;;0.00;0.00;;;;;;;14.24;64.67;98329.53;5075919;28;20028;-74
2021/12/03 07:42:40;;;;;;;0.10;0.10;;;;;;;14.33;64.39;98348.34;5093464;28;20028;-74
2021/12/03 07:45:08;;;;;;;0.00;0.00;;;;;;;14.40;64.40;98354.84;5093867;28;20111;-74
2021/12/03 07:47:33;;;;;;;0.00;0.00;;;;;;;14.51;63.81;98359.88;5094026;28;20107;-74
2021/12/03 07:49:59;;;;;;;0.00;0.00;;;;;;;14.54;63.42;98357.34;5075479;28;20115;-74
2021/12/03 07:52:25;;;;;;;0.00;0.00;;;;;;;14.62;63.30;98363.81;5075642;28;20064;-74
2021/12/03 07:54:50;;;;;;;0.00;0.00;;;;;;;14.70;63.13;98360.34;5093679;28;20028;-74
2021/12/03 07:57:16;;;;;;;0.00;0.00;;;;;;;14.79;62.77;98368.41;5093632;28;20016;-74
2021/12/03 07:59:42;;;;;;;0.00;0.00;;;;;;;14.84;62.71;98365.56;5093848;28;20032;-74
2021/12/03 08:02:07;;;;;;;0.22;0.22;;;;;;;14.89;62.57;98361.88;5075434;28;20063;-74
2021/12/03 08:04:33;;;;;;;0.00;0.00;;;;;;;15.02;61.96;98363.59;5075240;28;20079;-74
2021/12/03 08:07:00;;;;;;;0.00;0.00;;;;;;;15.11;61.78;98357.38;5093249;28;20107;-75
2021/12/03 08:09:26;;;;;;;0.00;0.00;;;;;;;15.18;61.54;98357.69;5074286;28;20550;-74
2021/12/03 08:11:51;;;;;;;0.00;0.00;;;;;;;15.28;61.06;98351.94;5075087;28;20062;-74
2021/12/03 08:14:17;;;;;;;0.28;0.28;;;;;;;15.27;60.13;98354.94;5093260;28;20167;-76
2021/12/03 08:16:43;;;;;;;0.05;0.05;;;;;;;15.32;60.15;98349.41;5092948;28;20448;-74
2021/12/03 08:19:09;;;;;;;0.00;0.00;;;;;;;15.46;59.57;98368.00;5093393;28;20109;-75
2021/12/03 08:21:34;;;;;;;0.10;0.10;;;;;;;15.45;59.28;98353.75;5075176;28;20043;-74
2021/12/03 08:24:00;;;;;;;0.75;0.75;;;;;;;15.49;59.08;98352.00;5093010;28;20077;-74
2021/12/03 08:26:27;;;;;;;0.10;0.10;;;;;;;15.49;58.78;98338.50;5092964;28;20169;-75
2021/12/03 08:28:52;;;;;;;0.00;0.00;;;;;;;15.66;58.30;98355.69;5093050;28;20066;-75
2021/12/03 08:31:18;;;;;;;0.00;0.00;;;;;;;15.71;58.29;98339.34;5093024;28;20097;-75
2021/12/03 08:33:44;;;;;;;0.00;0.00;;;;;;;15.75;57.92;98342.16;5074589;28;20450;-76
2021/12/03 08:36:10;;;;;;;0.10;0.10;;;;;;;15.74;57.90;98344.06;5074799;28;20054;-74
2021/12/03 08:38:35;;;;;;;0.22;0.22;;;;;;;15.78;57.54;98334.22;5092928;28;20028;-74
2021/12/03 08:41:02;;;;;;;0.40;0.40;;;;;;;15.78;57.44;98328.03;5074437;28;20507;-74
2021/12/03 08:43:27;;;;;;;0.10;0.10;;;;;;;15.73;57.44;98307.44;5074567;28;20496;-74
2021/12/03 08:45:55;;;;;;;0.00;0.00;;;;;;;15.75;57.36;98304.44;5092296;28;20099;-74
2021/12/03 08:48:23;;;;;;;;;;;;;;;15.80;57.83;98305.00;5092842;28;20035;-74
2021/12/03 08:50:54;;;;;;;0.47;0.47;;;;;;;15.71;57.62;98292.72;5074383;28;20306;-74
2021/12/03 08:55:45;;;;;;;0.00;0.00;;;;;;;15.80;57.83;98283.44;5092025;28;20127;-74
2021/12/03 08:58:13;;;;;;;0.43;0.38;;;;;;;15.77;57.84;98261.75;5092335;28;20024;-74
2021/12/03 09:00:39;;;;;;;0.20;0.20;;;;;;;15.80;57.78;98261.09;5092443;28;20475;-74
2021/12/03 09:03:06;;;;;;;0.30;0.30;;;;;;;15.88;57.57;98268.38;5092266;28;20047;-74
2021/12/03 09:05:34;;;;;;;0.00;0.00;;;;;;;15.90;56.89;98268.81;5092509;28;20109;-74
2021/12/03 09:08:00;;;;;;;;;;;;;;;15.95;56.74;98265.13;5092582;28;20032;-73
2021/12/03 09:10:26;;;;;;;0.00;0.00;;;;;;;15.88;56.74;98243.28;5092627;28;20003;-75
2021/12/03 09:12:52;;;;;;;0.20;0.20;;;;;;;15.98;56.43;98257.16;5091780;28;20020;-75
2021/12/03 09:15:23;;;;;;;0.10;0.10;;;;;;;15.96;56.51;98239.72;5092335;28;20481;-74
2021/12/03 09:18:08;;;;;;;0.00;0.00;;;;;;;16.03;56.39;98234.59;5073653;28;20024;-74
2021/12/03 09:20:51;;;;;;;0.10;0.10;;;;;;;16.10;56.26;98229.44;5092007;28;20043;-74
2021/12/03 09:23:30;;;;;;;0.00;0.00;;;;;;;16.13;55.95;98234.16;5091838;28;20016;-74
2021/12/03 09:26:13;;;;;;;0.00;0.00;;;;;;;16.22;55.59;98234.09;5091823;28;20410;-74
2021/12/03 09:28:42;;;;;;;0.03;0.03;;;;;;;16.23;55.50;98243.75;5073854;28;20032;-74
2021/12/03 09:31:10;;;;;;;0.00;0.00;;;;;;;16.20;55.72;98220.16;5091925;28;20032;-76
2021/12/03 09:33:37;;;;;;;0.00;0.00;;;;;;;16.26;56.08;98250.38;5073783;28;20035;-74
2021/12/03 09:36:04;;;;;;;0.00;0.00;;;;;;;16.19;55.55;98237.44;5091576;28;20150;-75
2021/12/03 09:38:34;;;;;;;0.00;0.00;;;;;;;16.23;55.54;98254.53;5091507;28;20551;-75
2021/12/03 09:41:10;;;;;;;0.00;0.00;;;;;;;16.27;54.86;98254.66;5091568;28;20020;-74
2021/12/03 09:43:39;;;;;;;0.00;0.00;;;;;;;16.32;54.29;98249.06;5091776;28;20024;-74
2021/12/03 09:46:15;;;;;;;0.10;0.10;;;;;;;16.30;54.09;98232.44;5073518;28;20043;-75
2021/12/03 09:54:22;;;;;;;0.15;0.15;;;;;;;16.63;53.51;98239.69;5028959;28;20033;-74
2021/12/03 09:56:50;;;;;;;0.00;0.00;;;;;;;16.67;53.04;98216.28;5062307;28;20487;-76
2021/12/03 10:15:35;;;;;;;0.63;0.63;;;;;;;17.37;50.55;98198.34;5091343;28;20093;-74
2021/12/03 10:18:24;;;;;;;;;;;;;;;17.45;50.53;98197.41;5091765;28;20559;-74
2021/12/03 10:21:17;;;;;;;0.00;0.00;;;;;;;17.49;50.75;98197.53;5091024;28;20342;-74
2021/12/03 10:26:51;;;;;;;0.30;0.30;;;;;;;17.53;51.25;98214.66;5091191;28;20388;-74
2021/12/03 10:29:26;;;;;;;0.20;0.17;;;;;;;17.56;51.75;98206.63;5090676;28;20051;-74
2021/12/03 10:35:30;;;;;;;0.10;0.10;;;;;;;17.52;50.84;98205.75;5091104;28;20032;-74
2021/12/03 10:46:02;;;;;;;0.00;0.00;;;;;;;17.54;51.51;98200.78;5090979;28;20475;-74
2021/12/03 10:48:40;;;;;;;0.10;0.10;;;;;;;17.49;50.74;98184.00;5090904;28;20107;-74
2021/12/03 10:51:26;;;;;;;0.00;0.00;;;;;;;17.49;51.33;98192.13;5072527;28;20380;-74
2021/12/03 10:54:11;;;;;;;0.03;0.03;;;;;;;17.49;51.56;98186.72;5090666;28;20380;-74
2021/12/03 11:33:32;;;;;;;0.38;0.38;;;;;;;17.47;49.11;98161.94;5090628;28;20414;-75
2021/12/03 11:35:03;;;;;;;0.32;0.32;;;;;;;17.48;49.05;98158.09;5090138;28;20039;-74
2021/12/03 11:43:38;;;;;;;0.03;0.03;;;;;;;17.52;48.79;98167.91;5090153;28;20426;-75
2021/12/03 13:13:40;;;;;;;0.10;0.10;;;;;;;17.37;49.51;98152.41;5092055;28;20039;-72
2021/12/03 14:48:38;;;;;;;0.15;0.15;;;;;;;16.08;54.79;98183.13;5090952;28;20097;-75
2021/12/03 14:53:38;;;;;;;0.08;0.08;;;;;;;15.99;56.07;98168.94;5090885;28;20089;-74
2021/12/03 14:56:08;;;;;;;0.20;0.20;;;;;;;16.00;57.14;98173.22;5072373;28;20399;-74
2021/12/03 15:01:39;;;;;;;0.00;0.00;;;;;;;15.88;58.21;98163.22;5090536;28;20445;-74
2021/12/03 15:07:09;;;;;;;0.00;0.00;;;;;;;15.74;59.02;98163.47;5090620;28;20484;-74
2021/12/03 15:09:43;;;;;;;0.00;0.00;;;;;;;15.76;59.79;98173.91;5086898;28;20024;-75
2021/12/03 15:20:32;;;;;;;0.75;0.32;;;;;;;15.59;61.23;98185.66;5074321;28;20037;-74
2021/12/03 15:23:08;;;;;;;0.20;0.20;;;;;;;15.44;61.63;98176.25;5068698;28;20520;-74
2021/12/03 15:33:50;;;;;;;0.00;0.00;;;;;;;15.46;62.31;98206.34;5087867;28;20042;-74
2021/12/03 15:39:21;;;;;;;0.00;0.00;;;;;;;15.42;62.66;98213.53;5093578;28;20039;-75
2021/12/03 16:08:28;;;;;;;0.30;0.30;;;;;;;15.14;64.34;98235.56;5077043;28;20063;-73
2021/12/03 16:14:16;;;;;;;0.10;0.10;;;;;;;15.00;65.07;98231.19;5010787;28;20069;-73
2021/12/03 16:19:21;;;;;;;0.25;0.25;;;;;;;15.03;65.68;98254.00;5055822;28;20495;-74
2021/12/03 16:24:39;;;;;;;0.10;0.10;;;;;;;14.96;66.40;98261.78;5080438;28;20032;-75
2021/12/03 16:27:27;;;;;;;0.30;0.30;;;;;;;14.86;67.04;98241.41;5082183;28;20041;-75
2021/12/03 16:44:24;;;;;;;0.08;0.08;;;;;;;14.81;68.24;98245.06;5073884;28;20036;-75
2021/12/03 16:51:53;;;;;;;3.47;1.30;;;;;;;14.78;68.77;98263.75;5092577;28;20544;-75
2021/12/03 16:54:40;;;;;;;0.55;0.55;;;;;;;14.77;68.51;98270.25;5082673;28;20185;-76
2021/12/03 16:57:07;;;;;;;0.00;0.00;;;;;;;14.64;68.45;98253.19;5077046;28;20064;-75
2021/12/03 16:59:33;;;;;;;0.10;0.10;;;;;;;14.66;68.62;98259.03;5063743;28;20036;-75
2021/12/03 17:02:07;;;;;;;0.10;0.10;;;;;;;14.68;68.49;98268.41;5073494;28;20028;-79
2021/12/03 17:15:10;;;;;;;0.20;0.20;;;;;;;14.56;67.75;98274.41;5079342;28;20047;-82
2021/12/03 17:21:14;;;;;;;0.30;0.30;;;;;;;14.44;67.29;98287.75;5072993;28;20075;-76
2021/12/03 17:50:10;;;;;;;0.13;0.13;;;;;;;14.18;69.71;98275.09;5093584;28;20046;-73
2021/12/03 17:56:02;;;;;;;0.10;0.10;;;;;;;14.32;69.20;98292.97;5093525;28;20039;-70
2021/12/03 18:51:33;;;;;;;0.00;0.00;;;;;;;14.09;68.02;98263.59;5092315;28;20085;-75
2021/12/03 18:56:29;;;;;;;0.00;0.00;;;;;;;14.11;68.27;98268.66;5077028;28;20034;-76
2021/12/03 18:58:57;;;;;;;0.10;0.10;;;;;;;14.11;68.52;98266.75;5067060;28;20028;-76